Time;durP1;ratioP1;P1;durP2;ratioP2;P2;SDS_P1;SDS_P2;PMS_P1;PMS_P2;Temp;Humidity;BMP_temperature;BMP_pressure;BME280_temperature;BME280_humidity;BME280_pressure;Samples;Min_cycle;Max_cycle;Signal;HPM_P1;HPM_P2
2020/12/26 00:00:57;;;;;;;3.90;1.70;;;0.10;95.40;;;;;;4957341;28;20261;-67
2020/12/26 00:03:23;;;;;;;1.43;1.43;;;0.20;95.40;;;;;;4957280;28;20233;-67
2020/12/26 00:05:49;;;;;;;1.23;1.13;;;0.20;95.20;;;;;;4957200;28;20671;-67
2020/12/26 00:08:15;;;;;;;1.97;1.83;;;0.20;95.10;;;;;;4957151;28;20185;-67
2020/12/26 00:10:40;;;;;;;1.63;1.53;;;0.20;95.20;;;;;;4957373;28;20392;-67
2020/12/26 00:13:06;;;;;;;2.70;2.07;;;0.30;95.20;;;;;;4957075;28;20169;-67
2020/12/26 00:15:31;;;;;;;2.63;1.83;;;0.30;95.00;;;;;;4957232;28;20523;-67
2020/12/26 00:17:57;;;;;;;1.97;1.87;;;0.30;94.80;;;;;;4956933;28;20191;-68
2020/12/26 00:20:23;;;;;;;2.47;1.97;;;0.20;94.80;;;;;;4957007;28;20201;-68
2020/12/26 00:22:50;;;;;;;2.10;1.97;;;0.20;94.90;;;;;;4956811;28;20181;-67
2020/12/26 00:25:16;;;;;;;1.52;1.45;;;0.00;94.70;;;;;;4956995;28;20248;-68
2020/12/26 00:27:41;;;;;;;1.10;1.00;;;-0.30;94.90;;;;;;4956811;28;20292;-67
2020/12/26 00:30:07;;;;;;;1.80;1.70;;;-0.50;95.20;;;;;;4955474;29;20432;-67
2020/12/26 00:32:34;;;;;;;1.90;1.80;;;-0.70;95.30;;;;;;4956510;28;20169;-67
2020/12/26 00:35:00;;;;;;;2.45;2.30;;;-0.80;95.60;;;;;;4956706;28;20508;-67
2020/12/26 00:37:25;;;;;;;1.80;1.67;;;-0.80;95.90;;;;;;4956506;28;20193;-68
2020/12/26 00:39:51;;;;;;;2.33;1.43;;;-0.80;95.80;;;;;;4956711;28;20173;-67
2020/12/26 00:42:17;;;;;;;1.60;1.27;;;-0.90;95.60;;;;;;4956418;28;20265;-67
2020/12/26 00:44:42;;;;;;;3.70;1.83;;;-1.00;95.70;;;;;;4956622;28;20182;-67
2020/12/26 00:47:08;;;;;;;1.33;1.20;;;-1.10;95.70;;;;;;4956308;28;20205;-68
2020/12/26 00:49:34;;;;;;;2.07;1.47;;;-1.10;95.80;;;;;;4956440;28;20191;-67
2020/12/26 00:51:59;;;;;;;15.10;3.37;;;-1.30;96.40;;;;;;4956417;28;20165;-67
2020/12/26 00:54:25;;;;;;;4.10;1.53;;;-1.50;96.30;;;;;;4956455;28;20256;-67
2020/12/26 00:56:51;;;;;;;2.20;1.03;;;-1.70;96.50;;;;;;4956171;28;20194;-68
2020/12/26 00:59:16;;;;;;;2.40;1.53;;;-1.90;96.90;;;;;;4955777;28;20706;-67
2020/12/26 01:01:42;;;;;;;1.43;1.33;;;-1.80;97.10;;;;;;4956207;28;20413;-67
2020/12/26 01:04:07;;;;;;;2.03;1.03;;;-1.90;97.10;;;;;;4956201;28;20177;-67
2020/12/26 01:06:33;;;;;;;1.20;1.10;;;-1.80;97.10;;;;;;4956031;28;20292;-67
2020/12/26 01:08:59;;;;;;;1.50;1.40;;;-1.80;96.90;;;;;;4954854;29;20706;-68
2020/12/26 01:11:24;;;;;;;1.20;1.20;;;-1.80;96.80;;;;;;4956089;28;20169;-67
2020/12/26 01:13:50;;;;;;;2.50;1.50;;;-1.80;96.70;;;;;;4956171;28;20170;-67
2020/12/26 01:16:16;;;;;;;0.60;0.60;;;-1.90;96.60;;;;;;4956363;28;20218;-67
2020/12/26 01:18:41;;;;;;;1.10;1.10;;;-1.90;96.90;;;;;;4955858;28;20240;-67
2020/12/26 01:21:07;;;;;;;3.20;1.40;;;-2.00;96.40;;;;;;4955905;28;20188;-67
2020/12/26 01:23:34;;;;;;;1.47;1.30;;;-2.10;96.20;;;;;;4956072;28;20178;-67
2020/12/26 01:26:00;;;;;;;1.00;0.90;;;-2.10;96.10;;;;;;4955871;28;20498;-68
2020/12/26 01:28:28;;;;;;;1.33;0.90;;;-2.10;96.30;;;;;;4955884;28;20232;-67
2020/12/26 01:30:55;;;;;;;2.90;1.45;;;-2.10;96.50;;;;;;4955537;28;20178;-67
2020/12/26 01:33:20;;;;;;;1.98;1.83;;;-2.10;96.60;;;;;;4955771;28;20585;-67
2020/12/26 01:35:46;;;;;;;1.20;1.10;;;-2.30;96.60;;;;;;4955726;28;20182;-67
2020/12/26 01:38:12;;;;;;;1.10;1.10;;;-2.50;97.10;;;;;;4955408;28;20244;-67
2020/12/26 01:40:37;;;;;;;0.60;0.60;;;-2.40;97.70;;;;;;4955772;28;20165;-67
2020/12/26 01:43:04;;;;;;;1.20;1.10;;;-2.20;97.80;;;;;;4955556;28;20169;-67
2020/12/26 01:45:30;;;;;;;0.80;0.80;;;-2.00;97.80;;;;;;4955763;28;20193;-67
2020/12/26 01:47:56;;;;;;;1.77;1.10;;;-2.00;97.40;;;;;;4955365;28;20323;-67
2020/12/26 01:50:21;;;;;;;1.90;1.25;;;-1.90;97.20;;;;;;4955612;28;20166;-68
2020/12/26 01:52:48;;;;;;;0.90;0.70;;;-1.90;97.10;;;;;;4955409;28;20678;-67
2020/12/26 01:55:14;;;;;;;1.10;1.02;;;-1.80;97.20;;;;;;4955566;28;20181;-67
2020/12/26 01:57:51;;;;;;;2.33;0.75;;;-1.60;96.90;;;;;;4955441;28;20199;-67
2020/12/26 02:00:18;;;;;;;4.95;1.35;;;-1.40;96.50;;;;;;4955824;28;20184;-67
2020/12/26 02:02:44;;;;;;;2.75;1.38;;;-1.20;96.30;;;;;;4955335;28;20225;-67
2020/12/26 02:05:10;;;;;;;0.75;0.75;;;-1.10;95.90;;;;;;4955544;28;20177;-67
2020/12/26 02:07:36;;;;;;;3.70;1.43;;;-1.00;95.80;;;;;;4955265;28;20289;-67
2020/12/26 02:10:02;;;;;;;0.88;0.88;;;-0.90;95.40;;;;;;4955301;28;20201;-67
2020/12/26 02:12:30;;;;;;;3.30;1.67;;;-0.80;94.90;;;;;;4958307;28;20173;-67
2020/12/26 02:14:55;;;;;;;0.82;0.82;;;-0.80;94.60;;;;;;4959261;28;20189;-67
2020/12/26 02:17:25;;;;;;;0.83;0.83;;;-0.70;94.70;;;;;;4959088;28;20623;-68
2020/12/26 02:19:51;;;;;;;0.90;0.90;;;-0.80;94.60;;;;;;4959168;28;20169;-67
2020/12/26 02:22:16;;;;;;;0.77;0.77;;;-1.00;95.00;;;;;;4958936;28;20326;-67
2020/12/26 02:24:42;;;;;;;1.23;1.13;;;-0.90;95.50;;;;;;4959205;28;20173;-67
2020/12/26 02:27:07;;;;;;;0.70;0.70;;;-0.80;95.80;;;;;;4959180;28;20201;-68
2020/12/26 02:29:33;;;;;;;0.97;0.97;;;-0.60;95.80;;;;;;4959008;28;20197;-67
2020/12/26 02:31:59;;;;;;;1.20;0.97;;;-0.40;95.60;;;;;;4958826;28;20174;-67
2020/12/26 02:34:24;;;;;;;2.10;1.30;;;-0.40;95.20;;;;;;4959255;28;20637;-67
2020/12/26 02:36:50;;;;;;;2.83;0.80;;;-0.30;95.10;;;;;;4958937;28;20197;-67
2020/12/26 02:39:16;;;;;;;0.70;0.70;;;-0.20;94.90;;;;;;4957435;29;20698;-67
2020/12/26 02:41:41;;;;;;;1.00;0.90;;;-0.10;94.80;;;;;;4958527;28;20225;-67
2020/12/26 02:44:07;;;;;;;0.90;0.90;;;-0.10;94.70;;;;;;4959122;28;20703;-68
2020/12/26 02:46:33;;;;;;;1.50;1.27;;;0.00;94.70;;;;;;4958752;28;20281;-67
2020/12/26 02:48:58;;;;;;;1.10;0.97;;;-0.10;94.30;;;;;;4958645;28;20655;-67
2020/12/26 02:51:24;;;;;;;1.20;1.10;;;-0.20;94.20;;;;;;4958698;28;20922;-67
2020/12/26 02:53:50;;;;;;;1.40;1.30;;;-0.40;94.40;;;;;;4958785;28;20667;-67
2020/12/26 02:56:17;;;;;;;1.07;1.00;;;-0.40;94.60;;;;;;4957211;28;20238;-67
2020/12/26 02:58:43;;;;;;;0.90;0.90;;;-0.50;94.70;;;;;;4958503;28;20590;-67
2020/12/26 03:01:09;;;;;;;1.07;0.97;;;-0.50;95.00;;;;;;4958435;28;20260;-67
2020/12/26 03:03:35;;;;;;;1.23;0.67;;;-0.60;95.00;;;;;;4958500;28;20173;-68
2020/12/26 03:06:00;;;;;;;1.98;0.90;;;-0.60;95.00;;;;;;4958379;28;20208;-67
2020/12/26 03:08:26;;;;;;;0.67;0.67;;;-0.70;95.30;;;;;;4958424;28;20193;-67
2020/12/26 03:10:53;;;;;;;1.30;1.20;;;-0.60;95.50;;;;;;4958205;28;20776;-67
2020/12/26 03:13:18;;;;;;;1.17;1.08;;;-0.60;95.50;;;;;;4958602;28;20193;-68
2020/12/26 03:15:44;;;;;;;1.10;1.03;;;-0.60;95.20;;;;;;4957019;28;20224;-67
2020/12/26 03:18:10;;;;;;;0.83;0.83;;;-0.60;95.20;;;;;;4958061;28;20566;-67
2020/12/26 03:20:35;;;;;;;1.30;1.07;;;-0.60;95.30;;;;;;4958238;28;20557;-68
2020/12/26 03:23:01;;;;;;;1.27;1.00;;;-0.70;95.30;;;;;;4957660;28;20317;-67
2020/12/26 03:25:26;;;;;;;1.13;1.03;;;-0.70;95.50;;;;;;4957965;28;20177;-67
2020/12/26 03:27:52;;;;;;;0.90;0.80;;;-0.80;95.70;;;;;;4957807;28;20284;-67
2020/12/26 03:30:18;;;;;;;1.40;1.30;;;-0.80;95.80;;;;;;4957959;28;20177;-67
2020/12/26 03:32:44;;;;;;;1.00;1.00;;;-0.80;95.80;;;;;;4957840;28;20174;-67
2020/12/26 03:35:09;;;;;;;3.50;1.00;;;-0.90;96.00;;;;;;4958039;28;20402;-67
2020/12/26 03:37:38;;;;;;;1.33;1.33;;;-1.00;96.00;;;;;;4957633;28;20186;-67
2020/12/26 03:40:05;;;;;;;1.30;0.90;;;-1.00;96.30;;;;;;4958013;28;20269;-67
2020/12/26 03:42:31;;;;;;;1.77;1.30;;;-1.00;96.40;;;;;;4957525;28;20178;-67
2020/12/26 03:44:56;;;;;;;0.90;0.90;;;-1.00;96.30;;;;;;4957844;29;20188;-67
2020/12/26 03:47:22;;;;;;;0.77;0.77;;;-1.20;96.40;;;;;;4957684;28;20209;-67
2020/12/26 03:49:48;;;;;;;1.40;1.13;;;-1.40;96.50;;;;;;4957610;28;20197;-67
2020/12/26 03:52:13;;;;;;;1.00;0.80;;;-1.50;96.90;;;;;;4957316;28;20232;-67
2020/12/26 03:54:39;;;;;;;4.67;1.63;;;-1.50;96.90;;;;;;4957450;28;20233;-67
2020/12/26 03:57:04;;;;;;;1.90;0.90;;;-1.40;96.80;;;;;;4957318;28;20221;-68
2020/12/26 03:59:30;;;;;;;2.90;1.10;;;-1.40;96.80;;;;;;4957539;28;20286;-67
2020/12/26 04:01:56;;;;;;;1.03;0.93;;;-1.50;96.80;;;;;;4957432;28;20621;-67
2020/12/26 04:04:21;;;;;;;0.83;0.83;;;-1.50;96.80;;;;;;4957463;28;20174;-67
2020/12/26 04:06:47;;;;;;;1.10;1.00;;;-1.50;96.80;;;;;;4957250;28;20228;-67
2020/12/26 04:09:13;;;;;;;1.80;1.70;;;-1.50;96.80;;;;;;4957380;28;20651;-67
2020/12/26 04:11:39;;;;;;;0.90;0.90;;;-1.40;96.90;;;;;;4957266;28;20174;-67
2020/12/26 04:14:05;;;;;;;3.47;1.70;;;-1.40;96.90;;;;;;4957169;28;20441;-67
2020/12/26 04:16:31;;;;;;;1.17;1.07;;;-1.30;96.90;;;;;;4957073;28;20216;-67
2020/12/26 04:18:57;;;;;;;1.83;1.40;;;-1.30;96.90;;;;;;4957035;28;20421;-67
2020/12/26 04:21:25;;;;;;;1.27;1.20;;;-1.30;96.80;;;;;;4956918;28;20533;-67
2020/12/26 04:23:54;;;;;;;1.50;0.80;;;-1.30;96.70;;;;;;4956925;28;20181;-67
2020/12/26 04:26:21;;;;;;;1.20;1.20;;;-1.30;96.60;;;;;;4955516;28;20201;-67
2020/12/26 04:28:49;;;;;;;2.95;1.27;;;-1.30;96.70;;;;;;4956924;28;20201;-67
2020/12/26 04:31:14;;;;;;;1.40;1.30;;;-1.40;96.70;;;;;;4956803;28;20174;-67
2020/12/26 04:33:40;;;;;;;3.27;1.63;;;-1.40;96.80;;;;;;4956213;28;20178;-67
2020/12/26 04:36:06;;;;;;;2.30;1.77;;;-1.40;96.90;;;;;;4956864;28;20411;-67
2020/12/26 04:38:32;;;;;;;1.90;1.20;;;-1.50;97.00;;;;;;4956472;28;20209;-68
2020/12/26 04:40:58;;;;;;;1.30;0.93;;;-1.30;97.30;;;;;;4956667;28;20174;-68
2020/12/26 04:43:25;;;;;;;2.75;1.23;;;-1.10;97.20;;;;;;4956791;28;20250;-67
2020/12/26 04:45:54;;;;;;;1.13;1.13;;;-0.90;96.90;;;;;;4956608;28;20182;-67
2020/12/26 04:48:23;;;;;;;1.65;1.55;;;-0.80;96.60;;;;;;4956586;28;20196;-67
2020/12/26 04:50:50;;;;;;;1.90;1.40;;;-0.70;96.30;;;;;;4956640;28;20197;-67
2020/12/26 04:53:17;;;;;;;2.95;1.20;;;-0.60;96.20;;;;;;4956470;28;20182;-67
2020/12/26 04:55:48;;;;;;;1.50;1.38;;;-0.50;96.10;;;;;;4956416;28;20162;-67
2020/12/26 04:58:16;;;;;;;1.70;0.77;;;-0.60;96.00;;;;;;4956349;28;20186;-67
2020/12/26 05:00:43;;;;;;;5.63;1.00;;;-0.60;96.10;;;;;;4956533;28;20166;-67
2020/12/26 05:03:14;;;;;;;1.02;1.02;;;-0.60;96.30;;;;;;4955949;28;20656;-68
2020/12/26 05:05:41;;;;;;;1.35;1.25;;;-0.50;96.20;;;;;;4956523;28;20170;-67
2020/12/26 05:08:09;;;;;;;3.03;1.60;;;-0.30;96.00;;;;;;4956103;28;20208;-67
2020/12/26 05:10:35;;;;;;;7.57;2.00;;;-0.20;95.70;;;;;;4956303;28;20670;-67
2020/12/26 05:13:02;;;;;;;0.90;0.90;;;-0.10;95.60;;;;;;4955974;29;20181;-67
2020/12/26 05:15:28;;;;;;;1.20;0.93;;;-0.10;95.30;;;;;;4956158;28;20178;-67
2020/12/26 05:17:54;;;;;;;1.08;0.95;;;-0.10;95.00;;;;;;4956072;28;20202;-67
2020/12/26 05:20:26;;;;;;;2.03;1.83;;;-0.10;94.90;;;;;;4956136;28;20580;-67
2020/12/26 05:23:17;;;;;;;0.95;0.70;;;-0.10;95.00;;;;;;4955851;28;20417;-67
2020/12/26 05:25:50;;;;;;;1.38;1.27;;;-0.20;95.10;;;;;;4954737;28;20760;-67
2020/12/26 05:28:17;;;;;;;9.45;2.03;;;-0.20;95.00;;;;;;4955765;28;20193;-67
2020/12/26 05:30:48;;;;;;;1.30;0.70;;;-0.30;94.90;;;;;;4956091;28;20205;-67
2020/12/26 05:33:14;;;;;;;2.78;1.52;;;-0.50;95.20;;;;;;4955671;28;20173;-67
2020/12/26 05:35:42;;;;;;;1.05;1.05;;;-0.50;95.70;;;;;;4955904;28;20170;-67
2020/12/26 05:38:21;;;;;;;1.20;0.82;;;-0.50;95.70;;;;;;4955601;28;20209;-67
2020/12/26 05:40:51;;;;;;;0.75;0.75;;;-0.40;95.80;;;;;;4955828;28;20177;-67
2020/12/26 05:43:19;;;;;;;0.70;0.70;;;-0.30;95.80;;;;;;4955506;28;20192;-67
2020/12/26 05:45:45;;;;;;;0.88;0.80;;;-0.20;95.70;;;;;;4955606;28;20537;-67
2020/12/26 05:48:16;;;;;;;0.88;0.88;;;-0.10;95.80;;;;;;4955475;28;20189;-67
2020/12/26 05:50:43;;;;;;;1.33;0.80;;;0.00;95.70;;;;;;4955717;28;20177;-67
2020/12/26 05:53:12;;;;;;;1.27;1.00;;;0.00;95.60;;;;;;4955487;28;20598;-67
2020/12/26 05:55:39;;;;;;;1.52;0.93;;;0.10;95.80;;;;;;4955474;28;20169;-67
2020/12/26 05:58:05;;;;;;;2.10;1.38;;;0.10;95.30;;;;;;4955379;28;20201;-67
2020/12/26 06:00:36;;;;;;;1.63;1.00;;;0.10;95.20;;;;;;4955765;28;20165;-67
2020/12/26 06:03:19;;;;;;;1.50;1.20;;;-0.20;95.10;;;;;;4955433;28;20775;-67
2020/12/26 06:05:51;;;;;;;1.73;1.02;;;-0.30;95.40;;;;;;4955477;28;20203;-67
2020/12/26 06:08:18;;;;;;;2.20;0.85;;;-0.40;95.60;;;;;;4955278;28;20225;-67
2020/12/26 06:10:51;;;;;;;2.40;0.88;;;-0.40;95.60;;;;;;4955677;28;20169;-67
2020/12/26 06:13:22;;;;;;;0.80;0.80;;;-0.30;95.80;;;;;;4955347;28;20173;-68
2020/12/26 06:15:50;;;;;;;1.27;1.17;;;-0.30;95.80;;;;;;4955406;28;20177;-67
2020/12/26 06:18:18;;;;;;;1.95;1.33;;;-0.30;96.00;;;;;;4955125;28;20276;-67
2020/12/26 06:20:44;;;;;;;2.20;2.00;;;-0.20;95.80;;;;;;4955330;28;20253;-67
2020/12/26 06:23:20;;;;;;;4.10;1.80;;;-0.20;95.60;;;;;;4953733;29;20209;-67
2020/12/26 06:25:47;;;;;;;1.48;1.38;;;-0.30;95.60;;;;;;4955259;28;20193;-67
2020/12/26 06:28:29;;;;;;;1.38;1.27;;;-0.40;95.90;;;;;;4955166;28;20317;-67
2020/12/26 06:30:58;;;;;;;2.20;1.45;;;-0.30;96.10;;;;;;4955106;28;20169;-67
2020/12/26 06:33:26;;;;;;;3.90;1.40;;;-0.20;96.40;;;;;;4955217;28;20181;-67
2020/12/26 06:35:53;;;;;;;1.52;1.45;;;-0.20;96.00;;;;;;4953877;29;20221;-67
2020/12/26 06:38:24;;;;;;;2.28;2.17;;;-0.10;95.90;;;;;;4954852;28;20205;-67
2020/12/26 06:40:53;;;;;;;0.95;0.95;;;0.00;95.80;;;;;;4954013;28;20648;-67
2020/12/26 06:43:44;;;;;;;1.55;1.45;;;0.10;95.80;;;;;;4955270;28;20260;-67
2020/12/26 06:46:32;;;;;;;1.35;1.05;;;0.20;95.60;;;;;;4955268;28;20197;-67
2020/12/26 06:48:59;;;;;;;2.67;1.45;;;0.00;95.40;;;;;;4954960;28;20177;-67
2020/12/26 06:51:25;;;;;;;1.50;1.30;;;-0.10;95.80;;;;;;4954987;28;20193;-68
2020/12/26 06:53:52;;;;;;;2.53;1.30;;;0.00;95.80;;;;;;4954912;28;20177;-67
2020/12/26 06:56:36;;;;;;;1.40;1.30;;;0.10;95.80;;;;;;4954961;28;20232;-67
2020/12/26 06:59:05;;;;;;;2.05;1.00;;;0.30;95.70;;;;;;4958483;28;20170;-67
2020/12/26 07:01:32;;;;;;;1.00;0.90;;;0.30;95.70;;;;;;4958362;28;20185;-67
2020/12/26 07:04:07;;;;;;;4.97;2.20;;;0.40;95.40;;;;;;4958534;28;20534;-67
2020/12/26 07:06:42;;;;;;;3.33;2.55;;;0.30;95.20;;;;;;4958179;28;20535;-67
2020/12/26 07:09:09;;;;;;;3.15;2.47;;;0.30;95.30;;;;;;4958611;28;20604;-67
2020/12/26 07:11:49;;;;;;;3.88;3.15;;;0.10;95.10;;;;;;4958076;28;20181;-67
2020/12/26 07:14:35;;;;;;;6.53;2.88;;;-0.20;95.30;;;;;;4958787;28;20174;-67
2020/12/26 07:17:02;;;;;;;2.42;1.95;;;-0.30;95.60;;;;;;4958034;28;20225;-67
2020/12/26 07:19:30;;;;;;;1.98;1.80;;;-0.20;95.40;;;;;;4958102;28;20166;-67
2020/12/26 07:22:11;;;;;;;1.58;1.48;;;-0.30;95.30;;;;;;4958035;28;20181;-67
2020/12/26 07:24:39;;;;;;;2.45;1.20;;;-0.50;95.20;;;;;;4958008;28;20204;-67
2020/12/26 07:27:25;;;;;;;8.00;1.90;;;-0.60;95.10;;;;;;4958019;28;20198;-67
2020/12/26 07:29:57;;;;;;;2.83;1.92;;;-0.50;95.20;;;;;;4958273;28;20169;-67
2020/12/26 07:32:41;;;;;;;2.55;2.22;;;-0.50;95.30;;;;;;4957807;28;20201;-67
2020/12/26 07:35:26;;;;;;;2.55;1.10;;;-0.50;95.40;;;;;;4957920;28;20253;-67
2020/12/26 07:37:51;;;;;;;2.38;1.80;;;-0.50;95.50;;;;;;4957597;28;20209;-67
2020/12/26 07:40:44;;;;;;;2.57;2.37;;;-0.40;95.60;;;;;;4957929;28;20249;-67
2020/12/26 07:43:15;;;;;;;1.88;1.55;;;-0.30;95.50;;;;;;4957717;28;20170;-67
2020/12/26 07:45:43;;;;;;;2.75;2.45;;;-0.10;95.30;;;;;;4957839;28;20202;-67
2020/12/26 07:48:09;;;;;;;2.03;1.70;;;0.00;95.10;;;;;;4957489;28;20205;-67
2020/12/26 07:50:40;;;;;;;2.72;2.25;;;0.10;94.90;;;;;;4957624;28;20534;-67
2020/12/26 07:53:10;;;;;;;3.20;1.75;;;0.30;94.80;;;;;;4957479;28;20248;-67
2020/12/26 07:55:36;;;;;;;2.05;1.35;;;0.60;94.50;;;;;;4957594;29;20277;-67
2020/12/26 07:58:07;;;;;;;3.65;2.25;;;0.70;94.00;;;;;;4956108;28;20201;-67
2020/12/26 08:00:37;;;;;;;2.70;2.05;;;0.90;93.70;;;;;;4957584;28;20205;-67
2020/12/26 08:03:07;;;;;;;6.00;2.58;;;1.10;93.50;;;;;;4957447;28;20185;-67
2020/12/26 08:05:38;;;;;;;1.92;1.65;;;1.20;93.20;;;;;;4957544;28;20167;-68
2020/12/26 08:08:15;;;;;;;2.15;2.05;;;1.30;93.00;;;;;;4956483;28;20300;-67
2020/12/26 08:10:41;;;;;;;1.45;1.38;;;1.30;92.80;;;;;;4956818;28;20682;-67
2020/12/26 08:13:12;;;;;;;2.55;2.35;;;1.50;92.70;;;;;;4956968;28;20178;-67
2020/12/26 08:15:37;;;;;;;3.10;2.80;;;1.70;92.50;;;;;;4957322;28;20593;-67
2020/12/26 08:18:04;;;;;;;3.47;2.57;;;1.90;92.10;;;;;;4956955;28;20229;-68
2020/12/26 08:20:31;;;;;;;3.05;2.85;;;2.20;91.60;;;;;;4957029;28;20165;-68
2020/12/26 08:22:57;;;;;;;2.17;1.98;;;2.50;91.00;;;;;;4956966;28;20243;-68
2020/12/26 08:25:25;;;;;;;2.15;1.98;;;2.60;90.40;;;;;;4957340;28;20252;-67
2020/12/26 08:27:52;;;;;;;3.08;2.42;;;2.80;89.90;;;;;;4956763;28;20284;-67
2020/12/26 08:30:30;;;;;;;1.33;1.23;;;2.90;89.90;;;;;;4957045;28;20170;-67
2020/12/26 08:33:06;;;;;;;4.05;1.65;;;3.20;90.10;;;;;;4956829;28;20646;-67
2020/12/26 08:35:33;;;;;;;1.92;1.83;;;3.30;87.50;;;;;;4956954;28;20170;-67
2020/12/26 08:38:06;;;;;;;4.15;2.25;;;3.30;86.70;;;;;;4956500;28;20620;-67
2020/12/26 08:40:36;;;;;;;4.13;2.75;;;3.50;86.90;;;;;;4956871;28;20169;-68
2020/12/26 08:43:11;;;;;;;1.65;1.55;;;3.90;85.50;;;;;;4956522;28;20545;-67
2020/12/26 08:45:37;;;;;;;2.40;1.17;;;4.70;83.30;;;;;;4956775;28;20180;-68
2020/12/26 08:48:16;;;;;;;1.10;0.90;;;5.60;80.20;;;;;;4956358;28;20225;-68
2020/12/26 08:50:42;;;;;;;2.78;2.35;;;6.60;76.80;;;;;;4956471;28;20177;-68
2020/12/26 08:53:11;;;;;;;9.67;5.40;;;7.20;72.20;;;;;;4956309;28;20580;-68
2020/12/26 08:56:06;;;;;;;30.30;10.38;;;7.50;69.00;;;;;;4956428;28;20433;-67
2020/12/26 08:58:33;;;;;;;21.50;9.07;;;8.60;67.80;;;;;;4955573;28;20209;-67
2020/12/26 09:01:05;;;;;;;5.72;4.65;;;9.90;61.70;;;;;;4956084;28;20540;-67
2020/12/26 09:03:34;;;;;;;3.92;3.53;;;11.30;55.80;;;;;;4956570;28;20176;-68
2020/12/26 09:06:02;;;;;;;4.40;3.25;;;12.60;51.50;;;;;;4956290;28;20714;-67
2020/12/26 09:08:33;;;;;;;6.93;4.60;;;13.30;47.20;;;;;;4956062;28;20212;-67
2020/12/26 09:11:11;;;;;;;4.35;2.97;;;13.50;45.90;;;;;;4956096;28;20256;-67
2020/12/26 09:13:39;;;;;;;3.28;2.65;;;13.70;44.30;;;;;;4956224;28;20173;-67
2020/12/26 09:16:11;;;;;;;3.20;2.90;;;13.30;43.80;;;;;;4956050;28;20184;-67
2020/12/26 09:18:43;;;;;;;4.00;3.40;;;12.90;44.20;;;;;;4955983;28;20197;-67
2020/12/26 09:21:19;;;;;;;4.82;4.32;;;12.50;43.90;;;;;;4955666;28;20172;-67
2020/12/26 09:23:46;;;;;;;8.77;4.60;;;11.80;44.50;;;;;;4956340;28;20180;-67
2020/12/26 09:26:13;;;;;;;5.60;3.50;;;11.00;46.40;;;;;;4955839;28;20193;-67
2020/12/26 09:28:50;;;;;;;3.35;2.00;;;10.50;46.00;;;;;;4955731;28;20584;-67
2020/12/26 09:31:25;;;;;;;1.40;1.13;;;9.90;47.50;;;;;;4954492;28;20689;-67
2020/12/26 09:33:52;;;;;;;2.08;1.33;;;9.60;48.50;;;;;;4955687;28;20175;-67
2020/12/26 09:36:20;;;;;;;1.95;1.30;;;9.70;48.10;;;;;;4955672;28;20180;-67
2020/12/26 09:38:47;;;;;;;2.97;1.90;;;9.90;47.70;;;;;;4955554;28;20240;-68
2020/12/26 09:41:24;;;;;;;5.93;2.20;;;10.10;46.70;;;;;;4955574;28;20516;-67
2020/12/26 09:43:55;;;;;;;2.38;2.17;;;10.10;47.40;;;;;;4955919;28;20515;-67
2020/12/26 09:46:22;;;;;;;4.50;2.90;;;9.90;48.30;;;;;;4955672;28;20202;-67
2020/12/26 09:48:49;;;;;;;6.15;2.67;;;9.50;48.20;;;;;;4955537;28;20509;-67
2020/12/26 09:51:20;;;;;;;7.00;3.30;;;8.80;48.60;;;;;;4955527;28;20179;-67
2020/12/26 09:53:46;;;;;;;4.60;3.47;;;8.20;50.90;;;;;;4955710;28;20261;-67
2020/12/26 09:56:12;;;;;;;6.07;4.65;;;7.80;51.20;;;;;;4955671;28;20240;-67
2020/12/26 09:58:42;;;;;;;4.75;2.78;;;7.30;53.20;;;;;;4955360;28;20619;-67
2020/12/26 10:01:12;;;;;;;4.25;3.42;;;7.00;53.60;;;;;;4955392;28;20264;-67
2020/12/26 10:03:37;;;;;;;3.25;2.92;;;6.70;54.80;;;;;;4954036;28;20176;-67
2020/12/26 10:06:03;;;;;;;3.63;2.30;;;6.40;55.40;;;;;;4955332;28;20256;-67
2020/12/26 10:08:30;;;;;;;2.40;1.80;;;6.20;56.00;;;;;;4955295;28;20189;-67
2020/12/26 10:10:56;;;;;;;1.92;1.70;;;5.90;55.60;;;;;;4955351;28;20173;-67
2020/12/26 10:13:22;;;;;;;1.15;0.90;;;5.70;55.50;;;;;;4954191;29;20212;-67
2020/12/26 10:15:48;;;;;;;1.23;0.90;;;5.60;55.60;;;;;;4955243;28;20170;-67
2020/12/26 10:18:13;;;;;;;2.40;1.40;;;5.40;54.10;;;;;;4955201;28;20435;-67
2020/12/26 10:20:39;;;;;;;7.90;2.77;;;5.30;55.40;;;;;;4955315;28;20634;-67
2020/12/26 10:23:04;;;;;;;7.80;4.13;;;5.30;56.40;;;;;;4955150;28;20236;-67
2020/12/26 10:25:30;;;;;;;12.43;6.13;;;5.30;54.60;;;;;;4955417;28;20202;-67
2020/12/26 10:27:55;;;;;;;7.40;4.03;;;5.20;55.30;;;;;;4955071;28;20216;-67
2020/12/26 10:30:21;;;;;;;5.00;3.50;;;5.20;55.20;;;;;;4955166;28;20178;-67
2020/12/26 10:32:47;;;;;;;5.53;1.83;;;5.20;54.90;;;;;;4956965;28;20203;-67
2020/12/26 10:35:13;;;;;;;4.15;2.88;;;5.10;53.80;;;;;;4959002;28;20236;-67
2020/12/26 10:37:39;;;;;;;4.65;1.58;;;4.90;53.40;;;;;;4958781;28;20232;-67
2020/12/26 10:40:08;;;;;;;2.50;2.30;;;4.80;54.40;;;;;;4958890;28;20174;-67
2020/12/26 10:42:33;;;;;;;3.00;2.40;;;4.70;54.60;;;;;;4958562;28;20189;-67
2020/12/26 10:45:00;;;;;;;2.53;2.33;;;4.80;55.00;;;;;;4958984;28;20178;-67
2020/12/26 10:47:26;;;;;;;4.43;1.42;;;4.90;54.50;;;;;;4958611;28;20720;-67
2020/12/26 10:49:51;;;;;;;1.30;1.20;;;4.90;54.50;;;;;;4958737;28;20268;-67
2020/12/26 10:52:17;;;;;;;2.77;1.50;;;5.10;54.50;;;;;;4958548;28;20174;-67
2020/12/26 10:54:42;;;;;;;0.90;0.80;;;5.10;53.70;;;;;;4958880;28;20212;-67
2020/12/26 10:57:08;;;;;;;1.30;1.20;;;5.10;55.80;;;;;;4958649;28;20220;-67
2020/12/26 10:59:34;;;;;;;1.00;0.90;;;5.30;54.50;;;;;;4958483;28;20185;-67
2020/12/26 11:02:01;;;;;;;9.73;1.90;;;5.20;53.60;;;;;;4958304;28;20217;-67
2020/12/26 11:04:27;;;;;;;1.27;1.17;;;4.70;54.70;;;;;;4958630;28;20259;-67
2020/12/26 11:06:52;;;;;;;1.43;1.33;;;4.50;53.80;;;;;;4958362;28;20288;-67
2020/12/26 11:09:18;;;;;;;3.73;1.00;;;4.60;54.00;;;;;;4958482;28;20555;-67
2020/12/26 11:11:48;;;;;;;0.80;0.80;;;4.70;54.00;;;;;;4958237;28;20179;-67
2020/12/26 11:14:14;;;;;;;1.30;1.20;;;4.80;53.40;;;;;;4958199;28;20409;-67
2020/12/26 11:16:40;;;;;;;1.27;1.25;;;4.70;53.50;;;;;;4958142;28;20638;-67
2020/12/26 11:19:06;;;;;;;2.30;1.37;;;4.90;54.80;;;;;;4958190;28;20189;-67
2020/12/26 11:21:32;;;;;;;0.70;0.70;;;4.90;54.90;;;;;;4958065;28;20178;-67
2020/12/26 11:23:57;;;;;;;5.70;1.57;;;5.00;54.20;;;;;;4958222;28;20201;-67
2020/12/26 11:26:23;;;;;;;1.10;0.73;;;4.90;53.00;;;;;;4958051;28;20207;-67
2020/12/26 11:28:48;;;;;;;1.07;1.07;;;5.00;55.60;;;;;;4957955;28;20658;-67
2020/12/26 11:31:23;;;;;;;1.13;1.03;;;5.10;55.40;;;;;;4958007;28;20181;-67
2020/12/26 11:33:49;;;;;;;1.70;0.80;;;5.00;52.00;;;;;;4958128;28;20260;-67
2020/12/26 11:36:22;;;;;;;1.03;0.80;;;5.10;51.40;;;;;;4957984;28;20686;-67
2020/12/26 11:38:49;;;;;;;1.00;0.90;;;5.10;51.50;;;;;;4957644;28;20444;-67
2020/12/26 11:41:20;;;;;;;2.97;1.15;;;5.10;54.10;;;;;;4957578;28;20224;-67
2020/12/26 11:43:46;;;;;;;1.02;0.80;;;5.20;56.60;;;;;;4957476;28;20265;-67
2020/12/26 11:46:12;;;;;;;0.80;0.80;;;5.30;56.70;;;;;;4957720;28;20589;-67
2020/12/26 11:48:38;;;;;;;0.70;0.70;;;5.30;54.50;;;;;;4957418;28;20193;-67
2020/12/26 11:51:04;;;;;;;0.63;0.60;;;5.30;54.00;;;;;;4957590;28;20178;-67
2020/12/26 11:53:30;;;;;;;1.05;0.93;;;5.20;54.50;;;;;;4957690;28;20173;-67
2020/12/26 11:55:56;;;;;;;3.30;1.17;;;5.20;55.30;;;;;;4957491;28;20530;-67
2020/12/26 11:58:24;;;;;;;0.77;0.77;;;5.10;56.00;;;;;;4957598;28;20667;-68
2020/12/26 12:00:58;;;;;;;1.42;0.93;;;5.10;55.00;;;;;;4957479;28;20207;-68
2020/12/26 12:03:24;;;;;;;1.25;1.15;;;5.00;54.30;;;;;;4957602;28;20251;-67
2020/12/26 12:05:50;;;;;;;0.80;0.80;;;5.10;54.30;;;;;;4957479;28;20628;-67
2020/12/26 12:08:15;;;;;;;0.90;0.90;;;5.20;55.90;;;;;;4957106;28;20314;-68
2020/12/26 12:10:41;;;;;;;0.60;0.60;;;5.30;57.30;;;;;;4957264;28;20649;-67
2020/12/26 12:13:07;;;;;;;1.60;1.00;;;5.30;54.40;;;;;;4957138;28;20253;-68
2020/12/26 12:15:33;;;;;;;1.13;0.80;;;5.30;54.60;;;;;;4957266;28;20250;-68
2020/12/26 12:18:02;;;;;;;1.40;0.82;;;5.40;54.70;;;;;;4957036;28;20664;-68
2020/12/26 12:20:31;;;;;;;1.63;0.70;;;5.20;54.70;;;;;;4957078;28;20229;-67
2020/12/26 12:22:58;;;;;;;1.13;0.82;;;5.00;55.80;;;;;;4956903;28;20323;-67
2020/12/26 12:25:25;;;;;;;1.00;1.00;;;4.80;56.10;;;;;;4957377;28;20173;-68
2020/12/26 12:27:51;;;;;;;0.73;0.73;;;4.80;56.90;;;;;;4955504;28;20276;-67
2020/12/26 12:30:17;;;;;;;1.55;0.85;;;4.50;56.60;;;;;;4956858;28;20165;-66
2020/12/26 12:32:43;;;;;;;2.05;0.93;;;4.20;56.10;;;;;;4956499;28;20174;-67
2020/12/26 12:35:09;;;;;;;1.35;1.25;;;4.10;56.60;;;;;;4956939;28;20227;-68
2020/12/26 12:37:35;;;;;;;3.20;1.20;;;4.10;57.60;;;;;;4956508;28;20434;-67
2020/12/26 12:40:02;;;;;;;1.52;1.33;;;4.00;59.10;;;;;;4956944;28;20632;-67
2020/12/26 12:42:29;;;;;;;0.93;0.93;;;4.10;59.40;;;;;;4956592;28;20178;-67
2020/12/26 12:44:55;;;;;;;4.97;1.40;;;4.20;57.70;;;;;;4956696;28;20166;-68
2020/12/26 12:47:25;;;;;;;1.30;1.20;;;4.30;57.80;;;;;;4956578;28;20213;-67
2020/12/26 12:49:51;;;;;;;1.90;1.00;;;4.20;56.90;;;;;;4956456;28;20165;-67
2020/12/26 12:52:20;;;;;;;0.77;0.77;;;4.30;57.50;;;;;;4956284;28;20745;-68
2020/12/26 12:54:46;;;;;;;0.95;0.95;;;4.40;58.80;;;;;;4954626;28;20165;-68